createdAt,value
2022-10-06T00:00:03.367Z,10.75
2022-10-06T00:00:26.071Z,9.88
2022-10-06T00:00:48.811Z,10.07
2022-10-06T00:01:14.031Z,9.85
2022-10-06T00:01:36.931Z,10.90
2022-10-06T00:01:59.576Z,10.82
2022-10-06T00:02:22.467Z,9.68
2022-10-06T00:02:46.610Z,10.15
2022-10-06T00:03:10.732Z,10.15
2022-10-06T00:03:33.401Z,9.88
2022-10-06T00:03:56.127Z,10.20
2022-10-06T00:04:18.776Z,10.32
2022-10-06T00:04:41.471Z,10.65
2022-10-06T00:05:04.497Z,10.57
2022-10-06T00:05:27.321Z,10.45
2022-10-06T00:05:51.517Z,10.15
2022-10-06T00:06:15.147Z,10.23
2022-10-06T00:06:37.912Z,10.75
2022-10-06T00:07:00.637Z,10.27
2022-10-06T00:07:23.459Z,10.43
2022-10-06T00:07:46.097Z,10.63
2022-10-06T00:08:10.262Z,11.13
2022-10-06T00:08:33.909Z,10.88
2022-10-06T00:08:56.581Z,10.68
2022-10-06T00:09:19.252Z,10.77
2022-10-06T00:09:41.917Z,10.95
2022-10-06T00:10:05.253Z,11.32
2022-10-06T00:10:28.058Z,11.85
2022-10-06T00:10:50.761Z,11.45
2022-10-06T00:11:14.076Z,10.55
2022-10-06T00:11:37.777Z,10.48
2022-10-06T00:12:00.711Z,10.52
2022-10-06T00:12:23.466Z,10.68
2022-10-06T00:12:47.367Z,10.35
2022-10-06T00:13:10.201Z,11.15
2022-10-06T00:13:32.936Z,11.70
2022-10-06T00:13:55.711Z,11.82
2022-10-06T00:14:18.386Z,11.32
2022-10-06T00:14:40.990Z,11.07
2022-10-06T00:15:03.847Z,10.77
2022-10-06T00:15:27.807Z,10.48
2022-10-06T00:15:50.664Z,11.70
2022-10-06T00:16:15.310Z,12.00
2022-10-06T00:16:38.232Z,11.23
2022-10-06T00:17:00.951Z,11.27
2022-10-06T00:17:23.747Z,11.13
2022-10-06T00:17:46.555Z,11.52
2022-10-06T00:18:10.657Z,11.85
2022-10-06T00:18:33.427Z,11.65
2022-10-06T00:18:57.131Z,12.10
2022-10-06T00:19:19.834Z,12.40
2022-10-06T00:19:42.561Z,12.25
2022-10-06T00:20:06.716Z,12.50
2022-10-06T00:20:29.722Z,12.30
2022-10-06T00:20:55.933Z,12.68
2022-10-06T00:21:18.626Z,11.80
2022-10-06T00:21:41.279Z,12.20
2022-10-06T00:22:04.071Z,12.50
2022-10-06T00:22:26.772Z,11.43
2022-10-06T00:22:50.096Z,11.48
2022-10-06T00:23:12.891Z,11.80
2022-10-06T00:23:35.987Z,11.60
2022-10-06T00:23:58.726Z,11.40
2022-10-06T00:24:21.397Z,11.35
2022-10-06T00:24:44.036Z,11.23
2022-10-06T00:25:07.362Z,11.02
2022-10-06T00:25:30.066Z,11.70
2022-10-06T00:25:52.848Z,11.65
2022-10-06T00:26:17.439Z,11.90
2022-10-06T00:26:40.435Z,11.20
2022-10-06T00:27:04.261Z,11.95
2022-10-06T00:27:33.405Z,12.02
2022-10-06T00:27:56.783Z,12.25
2022-10-06T00:28:19.560Z,11.75
2022-10-06T00:28:42.705Z,11.25
2022-10-06T00:29:05.702Z,11.50
2022-10-06T00:29:28.474Z,10.95
2022-10-06T00:29:51.201Z,10.60
2022-10-06T00:30:15.071Z,10.38
2022-10-06T00:30:37.884Z,10.20
2022-10-06T00:31:01.990Z,10.73
2022-10-06T00:31:24.954Z,10.70
2022-10-06T00:31:47.705Z,10.52
2022-10-06T00:32:10.756Z,11.02
2022-10-06T00:32:33.472Z,11.88
2022-10-06T00:32:57.811Z,11.73
2022-10-06T00:33:21.971Z,9.90
2022-10-06T00:33:44.791Z,10.10
2022-10-06T00:34:07.537Z,9.85
2022-10-06T00:34:30.227Z,9.98
2022-10-06T00:34:53.616Z,10.10
2022-10-06T00:35:16.333Z,9.77
2022-10-06T00:35:39.046Z,10.50
2022-10-06T00:36:01.758Z,10.43
2022-10-06T00:36:24.500Z,9.75
2022-10-06T00:36:47.233Z,9.10
2022-10-06T00:37:10.154Z,8.98
2022-10-06T00:37:35.414Z,9.50
2022-10-06T00:37:58.206Z,9.70
2022-10-06T00:38:20.955Z,9.88
2022-10-06T00:38:44.851Z,9.50
2022-10-06T00:39:07.520Z,9.60
2022-10-06T00:39:30.227Z,9.35
2022-10-06T00:39:53.066Z,9.50
2022-10-06T00:40:15.958Z,9.73
2022-10-06T00:40:43.360Z,9.55
2022-10-06T00:41:06.310Z,10.18
2022-10-06T00:41:29.127Z,10.55
2022-10-06T00:41:51.860Z,10.52
2022-10-06T00:42:24.297Z,10.55
2022-10-06T00:42:54.880Z,11.05
2022-10-06T00:43:40.178Z,10.80
2022-10-06T00:44:02.980Z,10.75
2022-10-06T00:44:25.700Z,11.00
2022-10-06T00:44:52.321Z,11.02
2022-10-06T00:45:14.994Z,10.90
2022-10-06T00:45:39.841Z,10.75
2022-10-06T00:46:02.526Z,10.77
2022-10-06T00:46:35.980Z,10.88
2022-10-06T00:46:58.900Z,11.15
2022-10-06T00:47:22.397Z,10.75
2022-10-06T00:47:45.657Z,10.48
2022-10-06T00:48:11.637Z,10.77
2022-10-06T00:48:35.851Z,10.63
2022-10-06T00:49:04.386Z,10.32
2022-10-06T00:49:31.626Z,10.32
2022-10-06T00:49:55.742Z,9.93
2022-10-06T00:50:18.442Z,10.55
2022-10-06T00:50:41.169Z,10.10
2022-10-06T00:51:06.576Z,9.85
2022-10-06T00:51:29.431Z,9.00
2022-10-06T00:51:55.212Z,8.90
2022-10-06T00:52:19.510Z,9.32
2022-10-06T00:52:42.237Z,9.80
2022-10-06T00:53:04.929Z,9.82
2022-10-06T00:53:28.572Z,10.20
2022-10-06T00:53:51.897Z,9.43
2022-10-06T00:54:14.520Z,9.30
2022-10-06T00:54:37.323Z,9.38
2022-10-06T00:55:00.105Z,9.20
2022-10-06T00:55:22.761Z,9.18
2022-10-06T00:55:46.079Z,9.27
2022-10-06T00:56:08.796Z,9.00
2022-10-06T00:56:31.601Z,9.07
2022-10-06T00:56:54.296Z,8.98
2022-10-06T00:57:17.026Z,9.82
2022-10-06T00:57:40.060Z,9.27
2022-10-06T00:58:02.712Z,9.25
2022-10-06T00:58:25.911Z,9.50
2022-10-06T00:58:50.421Z,8.93
2022-10-06T00:59:13.910Z,9.13
2022-10-06T00:59:36.650Z,10.02
2022-10-06T00:59:59.406Z,9.50
2022-10-06T01:00:22.195Z,9.15
2022-10-06T01:00:44.927Z,8.70
2022-10-06T01:01:07.735Z,9.43
2022-10-06T01:01:30.566Z,9.80
2022-10-06T01:01:55.918Z,9.82
2022-10-06T01:02:20.584Z,9.93
2022-10-06T01:02:45.223Z,9.52
2022-10-06T01:03:09.801Z,9.75
2022-10-06T01:03:33.840Z,10.15
2022-10-06T01:03:59.687Z,9.85
2022-10-06T01:04:22.960Z,9.68
2022-10-06T01:04:47.389Z,9.95
2022-10-06T01:05:10.646Z,10.10
2022-10-06T01:05:35.340Z,10.20
2022-10-06T01:05:58.151Z,9.70
2022-10-06T01:06:23.272Z,9.70
2022-10-06T01:06:48.443Z,9.38
2022-10-06T01:07:11.467Z,9.63
2022-10-06T01:07:34.198Z,9.48
2022-10-06T01:07:56.895Z,8.98
2022-10-06T01:08:19.489Z,8.93
2022-10-06T01:08:42.128Z,9.57
2022-10-06T01:09:04.828Z,9.43
2022-10-06T01:09:27.576Z,9.40
2022-10-06T01:09:50.287Z,9.43
2022-10-06T01:10:12.963Z,9.73
2022-10-06T01:10:35.707Z,9.63
2022-10-06T01:10:58.437Z,9.13
2022-10-06T01:11:23.522Z,8.55
2022-10-06T01:11:47.584Z,9.00
2022-10-06T01:12:10.406Z,9.27
2022-10-06T01:12:35.429Z,9.20
2022-10-06T01:12:58.471Z,9.05
2022-10-06T01:13:21.166Z,8.77
2022-10-06T01:13:44.456Z,8.95
2022-10-06T01:14:07.206Z,9.32
2022-10-06T01:14:29.922Z,9.48
2022-10-06T01:14:52.703Z,9.13
2022-10-06T01:15:16.059Z,9.00
2022-10-06T01:15:39.715Z,9.00
2022-10-06T01:16:04.304Z,9.20
2022-10-06T01:16:27.416Z,9.35
2022-10-06T01:16:52.331Z,8.60
2022-10-06T01:17:19.161Z,9.13
2022-10-06T01:17:44.182Z,9.13
2022-10-06T01:18:13.942Z,9.40
2022-10-06T01:18:36.697Z,10.40
2022-10-06T01:19:01.817Z,9.90
2022-10-06T01:19:31.872Z,10.73
2022-10-06T01:19:55.752Z,10.55
2022-10-06T01:20:19.218Z,10.98
2022-10-06T01:20:42.443Z,10.90
2022-10-06T01:21:16.188Z,11.15
2022-10-06T01:21:40.486Z,11.55
2022-10-06T01:22:05.946Z,10.88
2022-10-06T01:22:30.419Z,10.55
2022-10-06T01:22:54.819Z,10.20
2022-10-06T01:23:17.616Z,9.85
2022-10-06T01:23:40.326Z,10.00
2022-10-06T01:24:03.340Z,10.05
2022-10-06T01:24:26.068Z,11.07
2022-10-06T01:24:50.796Z,12.27
2022-10-06T01:25:14.877Z,12.32
2022-10-06T01:25:37.645Z,12.15
2022-10-06T01:26:00.391Z,12.07
2022-10-06T01:26:23.825Z,12.20
2022-10-06T01:26:48.804Z,12.05
2022-10-06T01:27:11.753Z,12.35
2022-10-06T01:27:35.145Z,12.48
2022-10-06T01:27:57.970Z,13.02
2022-10-06T01:28:20.690Z,12.82
2022-10-06T01:28:43.404Z,13.13
2022-10-06T01:29:06.244Z,13.07
2022-10-06T01:29:28.973Z,13.82
2022-10-06T01:29:53.123Z,14.38
2022-10-06T01:30:17.604Z,13.75
2022-10-06T01:30:44.008Z,13.82
2022-10-06T01:31:06.790Z,14.23
2022-10-06T01:31:29.520Z,14.07
2022-10-06T01:31:52.149Z,13.32
2022-10-06T01:32:14.918Z,13.48
2022-10-06T01:32:38.793Z,13.43
2022-10-06T01:33:01.438Z,12.95
2022-10-06T01:33:24.268Z,13.35
2022-10-06T01:33:51.493Z,13.25
2022-10-06T01:34:14.368Z,13.05
2022-10-06T01:34:37.099Z,12.13
2022-10-06T01:34:59.714Z,12.05
2022-10-06T01:35:22.538Z,12.43
2022-10-06T01:35:46.036Z,12.60
2022-10-06T01:36:08.723Z,13.65
2022-10-06T01:36:31.542Z,13.82
2022-10-06T01:36:54.405Z,13.95
2022-10-06T01:37:17.128Z,13.77
2022-10-06T01:37:42.233Z,12.25
2022-10-06T01:38:04.960Z,12.00
2022-10-06T01:38:27.986Z,12.65
2022-10-06T01:38:51.039Z,11.55
2022-10-06T01:39:13.754Z,12.15
2022-10-06T01:39:37.538Z,12.40
2022-10-06T01:40:00.328Z,12.30
2022-10-06T01:40:23.509Z,12.75
2022-10-06T01:40:46.239Z,12.95
2022-10-06T01:41:09.004Z,12.93
2022-10-06T01:41:33.451Z,14.60
2022-10-06T01:41:56.253Z,13.65
2022-10-06T01:42:19.003Z,13.68
2022-10-06T01:42:41.758Z,13.70
2022-10-06T01:43:04.474Z,14.13
2022-10-06T01:43:27.193Z,14.93
2022-10-06T01:43:50.019Z,13.90
2022-10-06T01:44:12.896Z,14.05
2022-10-06T01:44:35.701Z,14.45
2022-10-06T01:44:58.386Z,13.82
2022-10-06T01:45:21.106Z,14.38
2022-10-06T01:45:43.836Z,14.82
2022-10-06T01:46:06.799Z,14.68
2022-10-06T01:46:30.120Z,16.00
2022-10-06T01:46:55.524Z,16.75
2022-10-06T01:47:18.840Z,18.10
2022-10-06T01:47:41.602Z,15.63
2022-10-06T01:48:04.690Z,14.73
2022-10-06T01:48:27.989Z,15.93
2022-10-06T01:48:51.171Z,18.98
2022-10-06T01:49:13.810Z,15.80
2022-10-06T01:49:40.644Z,15.88
2022-10-06T01:50:07.364Z,14.50
2022-10-06T01:50:30.084Z,15.85
2022-10-06T01:50:53.710Z,15.70
2022-10-06T01:51:16.565Z,13.85
2022-10-06T01:51:39.300Z,13.93
2022-10-06T01:52:02.065Z,14.30
2022-10-06T01:52:25.255Z,14.60
2022-10-06T01:52:49.525Z,14.48
2022-10-06T01:53:12.245Z,14.45
2022-10-06T01:53:35.014Z,14.73
2022-10-06T01:53:57.960Z,14.55
2022-10-06T01:54:23.267Z,13.57
2022-10-06T01:54:45.960Z,14.85
2022-10-06T01:55:09.274Z,14.13
2022-10-06T01:55:32.049Z,14.57
2022-10-06T01:55:58.630Z,14.68
2022-10-06T01:56:21.363Z,13.98
2022-10-06T01:56:44.116Z,13.75
2022-10-06T01:57:08.369Z,13.88
2022-10-06T01:57:31.029Z,13.55
2022-10-06T01:57:53.794Z,13.65
2022-10-06T01:58:16.540Z,13.68
2022-10-06T01:58:39.294Z,14.00
2022-10-06T01:59:02.005Z,13.65
2022-10-06T01:59:24.806Z,14.48
2022-10-06T01:59:50.553Z,12.70
2022-10-06T02:00:16.666Z,12.90
2022-10-06T02:00:40.194Z,13.32
2022-10-06T02:01:07.376Z,13.27
2022-10-06T02:01:30.119Z,13.93
2022-10-06T02:01:53.114Z,13.40
2022-10-06T02:02:16.075Z,14.20
2022-10-06T02:02:38.839Z,14.68
2022-10-06T02:03:01.597Z,13.05
2022-10-06T02:03:24.653Z,12.50
2022-10-06T02:03:47.350Z,12.52
2022-10-06T02:04:10.135Z,13.50
2022-10-06T02:04:32.885Z,13.73
2022-10-06T02:04:55.510Z,13.88
2022-10-06T02:05:18.401Z,13.88
2022-10-06T02:05:41.065Z,13.35
2022-10-06T02:06:04.085Z,12.48
2022-10-06T02:06:29.612Z,13.55
2022-10-06T02:06:52.344Z,13.38
2022-10-06T02:07:15.073Z,14.13
2022-10-06T02:07:37.890Z,13.73
2022-10-06T02:08:02.783Z,14.68
2022-10-06T02:08:26.025Z,14.52
2022-10-06T02:08:49.057Z,13.93
2022-10-06T02:09:11.837Z,14.20
2022-10-06T02:09:37.096Z,13.13
2022-10-06T02:09:59.782Z,13.50
2022-10-06T02:10:22.531Z,12.63
2022-10-06T02:10:45.228Z,12.32
2022-10-06T02:11:12.508Z,12.73
2022-10-06T02:11:35.301Z,13.27
2022-10-06T02:11:57.962Z,12.90
2022-10-06T02:12:20.773Z,12.68
2022-10-06T02:12:43.501Z,12.60
2022-10-06T02:13:06.161Z,12.80
2022-10-06T02:13:30.427Z,12.27
2022-10-06T02:13:53.293Z,12.48
2022-10-06T02:14:18.162Z,12.52
2022-10-06T02:14:40.818Z,12.35
2022-10-06T02:15:03.784Z,12.27
2022-10-06T02:15:27.333Z,11.68
2022-10-06T02:15:51.236Z,11.85
2022-10-06T02:16:14.356Z,12.10
2022-10-06T02:16:37.397Z,12.82
2022-10-06T02:17:00.656Z,12.38
2022-10-06T02:17:23.462Z,12.15
2022-10-06T02:17:47.054Z,12.07
2022-10-06T02:18:09.857Z,12.23
2022-10-06T02:18:32.786Z,11.98
2022-10-06T02:18:55.650Z,11.75
2022-10-06T02:19:18.591Z,12.30
2022-10-06T02:19:41.229Z,11.98
2022-10-06T02:20:04.242Z,12.27
2022-10-06T02:20:27.024Z,12.45
2022-10-06T02:20:49.762Z,12.18
2022-10-06T02:21:16.229Z,11.82
2022-10-06T02:21:39.037Z,12.70
2022-10-06T02:22:01.788Z,12.27
2022-10-06T02:22:24.523Z,12.13
2022-10-06T02:22:47.517Z,11.90
2022-10-06T02:23:11.724Z,12.90
2022-10-06T02:23:34.559Z,12.05
2022-10-06T02:23:57.286Z,12.50
2022-10-06T02:24:20.134Z,12.50
2022-10-06T02:24:43.024Z,12.75
2022-10-06T02:25:06.083Z,12.65
2022-10-06T02:25:28.759Z,12.43
2022-10-06T02:25:58.529Z,13.07
2022-10-06T02:26:21.283Z,14.25
2022-10-06T02:26:44.025Z,12.85
2022-10-06T02:27:07.063Z,13.18
2022-10-06T02:27:29.760Z,14.50
2022-10-06T02:27:52.538Z,14.63
2022-10-06T02:28:16.899Z,15.30
2022-10-06T02:28:39.848Z,13.73
2022-10-06T02:29:02.574Z,15.32
2022-10-06T02:29:26.333Z,15.63
2022-10-06T02:29:50.282Z,14.55
2022-10-06T02:30:14.607Z,13.88
2022-10-06T02:30:37.604Z,14.75
2022-10-06T02:31:03.315Z,13.82
2022-10-06T02:31:26.170Z,13.63
2022-10-06T02:31:49.669Z,13.50
2022-10-06T02:32:12.339Z,15.25
2022-10-06T02:32:35.698Z,14.23
2022-10-06T02:32:58.669Z,14.00
2022-10-06T02:33:21.443Z,13.75
2022-10-06T02:33:44.979Z,13.57
2022-10-06T02:34:07.678Z,12.95
2022-10-06T02:34:30.320Z,13.38
2022-10-06T02:34:53.173Z,13.93
2022-10-06T02:35:17.188Z,14.35
2022-10-06T02:35:39.949Z,14.48
2022-10-06T02:36:02.590Z,15.20
2022-10-06T02:36:25.843Z,15.02
2022-10-06T02:36:48.565Z,14.52
2022-10-06T02:37:12.304Z,18.88
2022-10-06T02:37:35.163Z,18.13
2022-10-06T02:37:57.938Z,13.85
2022-10-06T02:38:22.063Z,14.02
2022-10-06T02:38:44.755Z,14.52
2022-10-06T02:39:08.594Z,13.88
2022-10-06T02:39:31.298Z,14.80
2022-10-06T02:39:54.079Z,15.45
2022-10-06T02:40:16.893Z,19.27
2022-10-06T02:40:39.598Z,19.73
2022-10-06T02:41:02.249Z,16.30
2022-10-06T02:41:25.737Z,13.90
2022-10-06T02:41:48.384Z,13.50
2022-10-06T02:42:11.388Z,11.27
2022-10-06T02:42:36.079Z,12.07
2022-10-06T02:42:59.350Z,13.73
2022-10-06T02:43:22.121Z,11.25
2022-10-06T02:43:44.901Z,12.30
2022-10-06T02:44:07.776Z,13.05
2022-10-06T02:44:30.522Z,12.73
2022-10-06T02:44:54.173Z,13.95
2022-10-06T02:45:16.983Z,12.90
2022-10-06T02:45:39.708Z,12.85
2022-10-06T02:46:03.698Z,12.70
2022-10-06T02:46:26.622Z,12.18
2022-10-06T02:46:53.818Z,12.43
2022-10-06T02:47:16.881Z,13.15
2022-10-06T02:47:39.626Z,13.23
2022-10-06T02:48:02.549Z,12.98
2022-10-06T02:48:25.556Z,12.38
2022-10-06T02:48:48.515Z,13.02
2022-10-06T02:49:11.283Z,12.85
2022-10-06T02:49:33.974Z,12.63
2022-10-06T02:49:56.682Z,12.55
2022-10-06T02:50:19.370Z,12.18
2022-10-06T02:50:42.749Z,13.10
2022-10-06T02:51:09.689Z,12.10
2022-10-06T02:51:33.254Z,10.18
2022-10-06T02:51:55.949Z,11.40
2022-10-06T02:52:18.675Z,12.82
2022-10-06T02:52:43.065Z,12.30
2022-10-06T02:53:08.806Z,11.60
2022-10-06T02:53:32.950Z,11.30
2022-10-06T02:53:55.680Z,12.18
2022-10-06T02:54:18.474Z,12.75
2022-10-06T02:54:43.779Z,13.88
2022-10-06T02:55:08.159Z,13.93
2022-10-06T02:55:31.365Z,11.85
2022-10-06T02:55:59.524Z,12.63
2022-10-06T02:56:23.004Z,13.88
2022-10-06T02:56:46.291Z,14.30
2022-10-06T02:57:09.616Z,14.15
2022-10-06T02:57:32.311Z,13.68
2022-10-06T02:57:55.365Z,14.03
2022-10-06T02:58:18.069Z,15.38
2022-10-06T02:58:42.899Z,14.65
2022-10-06T02:59:05.647Z,13.55
2022-10-06T02:59:28.359Z,12.80
2022-10-06T02:59:51.528Z,12.32
2022-10-06T03:00:15.248Z,13.13
2022-10-06T03:00:37.929Z,13.50
2022-10-06T03:01:03.561Z,16.17
2022-10-06T03:01:27.830Z,14.63
2022-10-06T03:01:50.698Z,13.77
2022-10-06T03:02:13.501Z,14.07
2022-10-06T03:02:36.414Z,12.27
2022-10-06T03:02:59.845Z,12.60
2022-10-06T03:03:22.587Z,12.25
2022-10-06T03:03:46.804Z,12.82
2022-10-06T03:04:11.993Z,12.73
2022-10-06T03:04:34.661Z,12.40
2022-10-06T03:04:57.429Z,12.80
2022-10-06T03:05:20.159Z,13.07
2022-10-06T03:05:43.202Z,12.95
2022-10-06T03:06:07.037Z,12.77
2022-10-06T03:06:31.189Z,13.32
2022-10-06T03:06:54.258Z,13.02
2022-10-06T03:07:17.112Z,12.10
2022-10-06T03:07:39.837Z,11.90
2022-10-06T03:08:02.512Z,11.90
2022-10-06T03:08:25.298Z,11.77
2022-10-06T03:08:50.072Z,10.88
2022-10-06T03:09:12.803Z,11.43
2022-10-06T03:09:35.549Z,11.43
2022-10-06T03:09:58.346Z,11.38
2022-10-06T03:10:21.088Z,10.60
2022-10-06T03:10:43.722Z,10.77
2022-10-06T03:11:07.360Z,10.85
2022-10-06T03:11:31.214Z,10.30
2022-10-06T03:11:54.120Z,10.43
2022-10-06T03:12:16.812Z,10.13
2022-10-06T03:12:39.529Z,10.40
2022-10-06T03:13:02.545Z,9.63
2022-10-06T03:13:25.274Z,9.55
2022-10-06T03:13:49.623Z,8.98
2022-10-06T03:14:12.271Z,8.90
2022-10-06T03:14:37.907Z,9.23
2022-10-06T03:15:00.650Z,9.45
2022-10-06T03:15:23.679Z,9.07
2022-10-06T03:15:46.718Z,9.32
2022-10-06T03:16:15.277Z,9.55
2022-10-06T03:16:39.209Z,9.93
2022-10-06T03:17:02.238Z,9.93
2022-10-06T03:17:24.993Z,9.75
2022-10-06T03:17:49.588Z,9.10
2022-10-06T03:18:13.056Z,9.77
2022-10-06T03:18:36.312Z,9.90
2022-10-06T03:18:59.057Z,10.40
2022-10-06T03:19:21.762Z,10.10
2022-10-06T03:19:44.437Z,9.77
2022-10-06T03:20:08.542Z,9.55
2022-10-06T03:20:31.230Z,9.70
2022-10-06T03:20:54.276Z,9.68
2022-10-06T03:21:16.958Z,9.90
2022-10-06T03:21:40.552Z,9.57
2022-10-06T03:22:03.503Z,9.93
2022-10-06T03:22:26.327Z,9.95
2022-10-06T03:22:48.968Z,10.20
2022-10-06T03:23:13.695Z,10.10
2022-10-06T03:23:36.623Z,10.18
2022-10-06T03:24:00.988Z,10.13
2022-10-06T03:24:23.752Z,9.60
2022-10-06T03:24:46.598Z,10.00
2022-10-06T03:25:10.808Z,11.02
2022-10-06T03:25:33.938Z,11.13
2022-10-06T03:25:57.647Z,11.57
2022-10-06T03:26:22.596Z,10.55
2022-10-06T03:26:46.486Z,10.45
2022-10-06T03:27:09.286Z,10.02
2022-10-06T03:27:32.142Z,9.30
2022-10-06T03:27:54.934Z,9.07
2022-10-06T03:28:17.649Z,9.57
2022-10-06T03:28:40.421Z,9.23
2022-10-06T03:29:04.461Z,9.23
2022-10-06T03:29:31.076Z,8.98
2022-10-06T03:29:53.676Z,9.20
2022-10-06T03:30:16.451Z,9.38
2022-10-06T03:30:39.172Z,9.35
2022-10-06T03:31:03.123Z,9.00
2022-10-06T03:31:25.982Z,8.60
2022-10-06T03:31:48.902Z,8.85
2022-10-06T03:32:11.723Z,8.90
2022-10-06T03:32:35.127Z,8.93
2022-10-06T03:33:00.023Z,8.65
2022-10-06T03:33:22.720Z,8.55
2022-10-06T03:33:45.370Z,8.43
2022-10-06T03:34:08.169Z,9.05
2022-10-06T03:34:30.819Z,9.00
2022-10-06T03:34:53.590Z,8.27
2022-10-06T03:35:16.627Z,8.38
2022-10-06T03:35:39.299Z,7.85
2022-10-06T03:36:02.634Z,7.78
2022-10-06T03:36:26.292Z,7.68
2022-10-06T03:36:49.014Z,7.40
2022-10-06T03:37:11.749Z,7.45
2022-10-06T03:37:34.549Z,7.93
2022-10-06T03:37:59.184Z,7.50
2022-10-06T03:38:21.939Z,8.00
2022-10-06T03:38:44.629Z,8.13
2022-10-06T03:39:09.926Z,7.85
2022-10-06T03:39:34.565Z,7.35
2022-10-06T03:39:57.411Z,7.45
2022-10-06T03:40:20.192Z,7.15
2022-10-06T03:40:42.979Z,7.22
2022-10-06T03:41:06.109Z,8.55
2022-10-06T03:41:29.584Z,8.70
2022-10-06T03:41:52.251Z,8.80
2022-10-06T03:42:15.039Z,8.02
2022-10-06T03:42:37.639Z,7.55
2022-10-06T03:43:00.405Z,7.45
2022-10-06T03:43:26.399Z,7.35
2022-10-06T03:43:50.465Z,7.50
2022-10-06T03:44:13.225Z,7.47
2022-10-06T03:44:39.033Z,7.60
2022-10-06T03:45:02.844Z,7.53
2022-10-06T03:45:25.553Z,7.13
2022-10-06T03:45:57.008Z,7.22
2022-10-06T03:46:21.585Z,7.45
2022-10-06T03:46:44.321Z,7.10
2022-10-06T03:47:13.219Z,7.93
2022-10-06T03:47:38.935Z,8.45
2022-10-06T03:48:01.699Z,8.18
2022-10-06T03:48:24.470Z,8.15
2022-10-06T03:48:47.222Z,8.00
2022-10-06T03:49:09.854Z,8.27
2022-10-06T03:49:32.769Z,8.38
2022-10-06T03:49:55.395Z,8.30
2022-10-06T03:50:19.087Z,8.43
2022-10-06T03:50:43.940Z,8.32
2022-10-06T03:51:07.815Z,8.25
2022-10-06T03:51:31.890Z,7.78
2022-10-06T03:51:54.646Z,7.82
2022-10-06T03:52:18.601Z,7.88
2022-10-06T03:52:44.034Z,7.70
2022-10-06T03:53:06.721Z,7.68
2022-10-06T03:53:30.069Z,7.45
2022-10-06T03:53:52.964Z,7.72
2022-10-06T03:54:17.130Z,7.45
2022-10-06T03:54:39.725Z,8.30
2022-10-06T03:55:05.815Z,7.55
2022-10-06T03:55:28.704Z,8.20
2022-10-06T03:56:01.932Z,7.97
2022-10-06T03:56:25.274Z,7.60
2022-10-06T03:56:48.033Z,7.75
2022-10-06T03:57:10.869Z,7.43
2022-10-06T03:57:33.545Z,7.70
2022-10-06T03:57:57.406Z,7.50
2022-10-06T03:58:20.083Z,7.82
2022-10-06T03:58:45.668Z,7.60
2022-10-06T03:59:10.273Z,8.15
2022-10-06T03:59:34.913Z,7.68
2022-10-06T03:59:59.938Z,7.30
2022-10-06T04:00:22.878Z,7.32
2022-10-06T04:00:46.589Z,7.57
2022-10-06T04:01:10.498Z,7.45
2022-10-06T04:01:34.519Z,7.90
2022-10-06T04:01:59.902Z,7.25
2022-10-06T04:02:24.939Z,7.18
2022-10-06T04:02:47.675Z,7.03
2022-10-06T04:03:10.357Z,6.80
2022-10-06T04:03:33.115Z,7.13
2022-10-06T04:03:56.159Z,7.28
2022-10-06T04:04:18.854Z,7.18
2022-10-06T04:04:41.504Z,6.80
2022-10-06T04:05:06.662Z,6.40
2022-10-06T04:05:29.329Z,6.88
2022-10-06T04:05:55.479Z,7.22
2022-10-06T04:06:19.212Z,7.07
2022-10-06T04:06:43.184Z,6.60
2022-10-06T04:07:05.995Z,7.03
2022-10-06T04:07:28.725Z,6.63
2022-10-06T04:07:53.654Z,7.00
2022-10-06T04:08:16.409Z,7.18
2022-10-06T04:08:39.674Z,7.22
2022-10-06T04:09:02.475Z,7.43
2022-10-06T04:09:26.638Z,7.40
2022-10-06T04:09:49.297Z,7.03
2022-10-06T04:10:12.065Z,7.10
2022-10-06T04:10:34.861Z,7.30
2022-10-06T04:11:05.164Z,7.13
2022-10-06T04:11:28.955Z,7.03
2022-10-06T04:11:52.796Z,6.70
2022-10-06T04:12:17.883Z,6.90
2022-10-06T04:12:40.581Z,6.45
2022-10-06T04:13:03.315Z,6.90
2022-10-06T04:13:25.990Z,6.72
2022-10-06T04:13:49.126Z,7.35
2022-10-06T04:14:13.955Z,7.35
2022-10-06T04:14:36.650Z,7.35
2022-10-06T04:15:00.255Z,7.40
2022-10-06T04:15:23.216Z,7.80
2022-10-06T04:15:45.993Z,7.68
2022-10-06T04:16:12.794Z,7.35
2022-10-06T04:16:36.225Z,7.60
2022-10-06T04:16:59.700Z,7.40
2022-10-06T04:17:22.421Z,7.45
2022-10-06T04:17:45.216Z,7.03
2022-10-06T04:18:07.880Z,6.97
2022-10-06T04:18:30.923Z,7.10
2022-10-06T04:18:56.380Z,7.28
2022-10-06T04:19:19.201Z,7.47
2022-10-06T04:19:41.921Z,7.88
2022-10-06T04:20:07.291Z,7.50
2022-10-06T04:20:29.945Z,7.85
2022-10-06T04:20:59.691Z,7.55
2022-10-06T04:21:22.405Z,7.28
2022-10-06T04:21:47.102Z,7.45
2022-10-06T04:22:09.738Z,7.80
2022-10-06T04:22:32.487Z,7.63
2022-10-06T04:22:55.753Z,7.20
2022-10-06T04:23:20.898Z,7.47
2022-10-06T04:23:43.654Z,7.15
2022-10-06T04:24:07.046Z,7.63
2022-10-06T04:24:31.260Z,7.53
2022-10-06T04:24:53.966Z,7.20
2022-10-06T04:25:16.811Z,7.43
2022-10-06T04:25:39.510Z,6.90
2022-10-06T04:26:03.032Z,7.53
2022-10-06T04:26:27.062Z,7.45
2022-10-06T04:26:50.409Z,7.28
2022-10-06T04:27:28.381Z,7.50
2022-10-06T04:27:52.965Z,6.95
2022-10-06T04:28:16.072Z,6.82
2022-10-06T04:28:39.349Z,7.10
2022-10-06T04:29:03.200Z,7.13
2022-10-06T04:29:25.925Z,7.30
2022-10-06T04:29:48.661Z,6.90
2022-10-06T04:30:12.728Z,6.93
2022-10-06T04:30:36.005Z,7.03
2022-10-06T04:30:58.800Z,7.18
2022-10-06T04:31:24.126Z,7.07
2022-10-06T04:31:47.276Z,7.20
2022-10-06T04:32:12.140Z,7.30
2022-10-06T04:32:35.362Z,7.13
2022-10-06T04:32:58.089Z,6.78
2022-10-06T04:33:22.953Z,6.80
2022-10-06T04:33:47.069Z,7.25
2022-10-06T04:34:10.987Z,7.82
2022-10-06T04:34:33.747Z,7.63
2022-10-06T04:34:56.459Z,7.38
2022-10-06T04:35:21.834Z,7.25
2022-10-06T04:35:44.564Z,7.53
2022-10-06T04:36:08.386Z,7.90
2022-10-06T04:36:32.495Z,7.68
2022-10-06T04:36:55.175Z,7.30
2022-10-06T04:37:17.915Z,7.90
2022-10-06T04:37:41.294Z,7.63
2022-10-06T04:38:04.065Z,7.43
2022-10-06T04:38:28.424Z,7.10
2022-10-06T04:38:54.179Z,7.70
2022-10-06T04:39:16.886Z,7.20
2022-10-06T04:39:41.292Z,7.57
2022-10-06T04:40:04.329Z,7.70
2022-10-06T04:40:27.044Z,7.88
2022-10-06T04:40:49.897Z,7.68
2022-10-06T04:41:14.304Z,7.55
2022-10-06T04:41:37.924Z,7.60
2022-10-06T04:42:00.829Z,8.07
2022-10-06T04:42:27.892Z,7.82
2022-10-06T04:42:53.016Z,8.02
2022-10-06T04:43:15.732Z,8.52
2022-10-06T04:43:38.404Z,8.07
2022-10-06T04:44:02.353Z,8.18
2022-10-06T04:44:25.123Z,8.50
2022-10-06T04:44:47.938Z,7.68
2022-10-06T04:45:11.316Z,7.50
2022-10-06T04:45:34.104Z,7.60
2022-10-06T04:45:58.268Z,8.00
2022-10-06T04:46:42.225Z,8.15
2022-10-06T04:47:04.553Z,7.80
2022-10-06T04:47:27.284Z,7.75
2022-10-06T04:47:50.241Z,6.95
2022-10-06T04:48:13.932Z,7.40
2022-10-06T04:48:36.663Z,7.45
2022-10-06T04:48:59.349Z,7.45
2022-10-06T04:49:22.242Z,7.10
2022-10-06T04:49:47.201Z,7.53
2022-10-06T04:50:10.529Z,7.75
2022-10-06T04:50:33.277Z,7.93
2022-10-06T04:50:56.631Z,7.78
2022-10-06T04:51:19.512Z,8.15
2022-10-06T04:51:42.236Z,7.55
2022-10-06T04:52:04.977Z,8.13
2022-10-06T04:52:30.056Z,8.27
2022-10-06T04:52:54.167Z,7.75
2022-10-06T04:53:16.892Z,7.90
2022-10-06T04:53:39.721Z,8.20
2022-10-06T04:54:03.843Z,7.40
2022-10-06T04:54:31.311Z,7.95
2022-10-06T04:54:58.107Z,7.75
2022-10-06T04:55:21.771Z,7.90
2022-10-06T04:55:44.533Z,7.68
2022-10-06T04:56:08.381Z,7.78
2022-10-06T04:56:31.377Z,8.18
2022-10-06T04:56:54.072Z,8.18
2022-10-06T04:57:17.009Z,8.30
2022-10-06T04:57:39.760Z,8.40
2022-10-06T04:58:02.429Z,7.43
2022-10-06T04:58:25.123Z,7.40
2022-10-06T04:58:48.854Z,7.80
2022-10-06T04:59:11.571Z,8.02
2022-10-06T04:59:52.453Z,7.75
2022-10-06T05:00:25.384Z,7.70
2022-10-06T05:00:49.438Z,7.43
2022-10-06T05:01:16.407Z,7.30
2022-10-06T05:01:39.185Z,7.75
2022-10-06T05:02:02.797Z,8.23
2022-10-06T05:02:25.575Z,8.13
2022-10-06T05:02:48.329Z,8.25
2022-10-06T05:03:11.109Z,8.52
2022-10-06T05:03:33.787Z,8.10
2022-10-06T05:03:57.276Z,8.65
2022-10-06T05:04:20.091Z,8.43
2022-10-06T05:04:45.005Z,7.80
2022-10-06T05:05:08.099Z,8.00
2022-10-06T05:05:31.679Z,8.02
2022-10-06T05:05:54.575Z,8.23
2022-10-06T05:06:18.295Z,8.48
2022-10-06T05:06:41.933Z,7.85
2022-10-06T05:07:05.812Z,7.82
2022-10-06T05:07:31.642Z,7.93
2022-10-06T05:07:54.346Z,7.65
2022-10-06T05:08:17.076Z,7.50
2022-10-06T05:08:39.976Z,7.72
2022-10-06T05:09:03.997Z,8.13